createdAt,value
2023-09-08T00:00:56.510Z,17.00
2023-09-08T00:03:24.638Z,17.00
2023-09-08T00:05:52.823Z,17.00
2023-09-08T00:08:22.952Z,17.10
2023-09-08T00:10:50.948Z,17.20
2023-09-08T00:13:19.019Z,17.00
2023-09-08T00:15:47.052Z,17.00
2023-09-08T00:18:15.174Z,16.80
2023-09-08T00:20:44.095Z,16.70
2023-09-08T00:23:12.263Z,16.70
2023-09-08T00:25:42.284Z,16.50
2023-09-08T00:28:10.301Z,16.50
2023-09-08T00:30:40.318Z,16.40
2023-09-08T00:33:10.239Z,16.40
2023-09-08T00:35:38.448Z,16.30
2023-09-08T00:38:06.673Z,16.30
2023-09-08T00:40:34.781Z,16.30
2023-09-08T00:43:04.197Z,16.30
2023-09-08T00:45:32.811Z,16.20
2023-09-08T00:48:01.342Z,16.20
2023-09-08T00:50:29.612Z,16.10
2023-09-08T00:52:57.665Z,16.10
2023-09-08T00:55:26.730Z,16.20
2023-09-08T00:57:54.845Z,16.30
2023-09-08T01:00:24.280Z,16.20
2023-09-08T01:02:52.403Z,16.20
2023-09-08T01:05:21.435Z,16.20
2023-09-08T01:07:50.632Z,16.10
2023-09-08T01:10:19.236Z,16.10
2023-09-08T01:12:47.288Z,16.10
2023-09-08T01:15:15.459Z,16.00
2023-09-08T01:17:45.032Z,16.00
2023-09-08T01:20:22.800Z,16.00
2023-09-08T01:23:16.314Z,16.00
2023-09-08T01:25:51.324Z,16.00
2023-09-08T01:28:20.115Z,16.00
2023-09-08T01:30:48.934Z,15.90
2023-09-08T01:33:17.609Z,15.90
2023-09-08T01:35:45.857Z,15.90
2023-09-08T01:38:13.975Z,15.90
2023-09-08T01:40:41.997Z,15.80
2023-09-08T01:43:11.508Z,15.90
2023-09-08T01:45:39.617Z,15.90
2023-09-08T01:48:08.408Z,15.90
2023-09-08T01:50:36.819Z,15.90
2023-09-08T01:53:05.438Z,15.90
2023-09-08T01:55:33.504Z,15.90
2023-09-08T01:58:01.870Z,15.90
2023-09-08T02:00:31.427Z,15.90
2023-09-08T02:02:59.575Z,15.80
2023-09-08T02:05:28.114Z,15.70
2023-09-08T02:07:56.828Z,15.80
2023-09-08T02:10:25.069Z,15.70
2023-09-08T02:12:54.317Z,15.70
2023-09-08T02:15:22.436Z,15.70
2023-09-08T02:17:54.921Z,15.70
2023-09-08T02:20:22.996Z,15.60
2023-09-08T02:22:55.695Z,15.50
2023-09-08T02:25:25.660Z,15.40
2023-09-08T02:27:53.817Z,15.40
2023-09-08T02:30:21.837Z,15.30
2023-09-08T02:32:49.925Z,15.30
2023-09-08T02:35:19.950Z,15.30
2023-09-08T02:37:48.049Z,15.30
2023-09-08T02:40:16.101Z,15.20
2023-09-08T02:42:44.210Z,15.20
2023-09-08T02:45:12.654Z,15.20
2023-09-08T02:47:40.770Z,15.10
2023-09-08T02:50:09.406Z,15.10
2023-09-08T02:52:38.822Z,15.00
2023-09-08T02:55:07.962Z,15.00
2023-09-08T02:57:35.941Z,15.00
2023-09-08T03:00:04.371Z,14.90
2023-09-08T03:02:33.187Z,14.90
2023-09-08T03:05:01.564Z,14.90
2023-09-08T03:07:29.943Z,14.80
2023-09-08T03:09:59.424Z,14.80
2023-09-08T03:12:27.529Z,14.80
2023-09-08T03:14:56.552Z,14.80
2023-09-08T03:17:24.660Z,14.90
2023-09-08T03:19:52.700Z,14.80
2023-09-08T03:22:20.809Z,14.80
2023-09-08T03:24:48.865Z,14.80
2023-09-08T03:27:18.265Z,14.80
2023-09-08T03:29:46.319Z,14.90
2023-09-08T03:32:14.498Z,14.90
2023-09-08T03:34:42.801Z,14.90
2023-09-08T03:37:10.954Z,14.90
2023-09-08T03:39:38.983Z,14.90
2023-09-08T03:42:07.209Z,14.90
2023-09-08T03:44:36.569Z,14.80
2023-09-08T03:47:04.855Z,14.80
2023-09-08T03:49:33.123Z,14.80
2023-09-08T03:52:01.211Z,14.80
2023-09-08T03:54:29.332Z,14.70
2023-09-08T03:56:57.350Z,14.60
2023-09-08T03:59:25.340Z,14.60
2023-09-08T04:01:54.726Z,14.60
2023-09-08T04:04:23.310Z,14.70
2023-09-08T04:06:51.381Z,14.60
2023-09-08T04:09:19.408Z,14.50
2023-09-08T04:11:47.514Z,14.50
2023-09-08T04:14:15.568Z,14.50
2023-09-08T04:16:43.598Z,14.50
2023-09-08T04:19:12.982Z,14.50
2023-09-08T04:21:43.171Z,14.40
2023-09-08T04:24:12.181Z,14.40
2023-09-08T04:26:40.239Z,14.40
2023-09-08T04:29:08.254Z,14.40
2023-09-08T04:31:36.362Z,14.40
2023-09-08T04:34:04.428Z,14.30
2023-09-08T04:36:33.942Z,14.20
2023-09-08T04:39:01.966Z,14.20
2023-09-08T04:41:29.981Z,14.10
2023-09-08T04:43:59.275Z,14.20
2023-09-08T04:46:27.470Z,14.40
2023-09-08T04:48:55.517Z,14.50
2023-09-08T04:51:23.516Z,14.50
2023-09-08T04:53:52.847Z,14.50
2023-09-08T04:56:20.829Z,14.60
2023-09-08T04:58:48.789Z,14.60
2023-09-08T05:04:17.223Z,14.60
2023-09-08T05:06:45.166Z,14.70
2023-09-08T05:09:15.765Z,14.80
2023-09-08T05:11:43.734Z,14.80
2023-09-08T05:14:11.757Z,14.80
2023-09-08T05:16:46.300Z,14.90
2023-09-08T05:19:14.848Z,15.00
2023-09-08T05:21:44.461Z,15.10
2023-09-08T05:24:13.844Z,15.20
2023-09-08T05:26:43.767Z,15.50
2023-09-08T05:29:11.722Z,15.60
2023-09-08T05:31:39.750Z,15.80
2023-09-08T05:34:07.898Z,15.80
2023-09-08T05:36:37.959Z,15.80
2023-09-08T05:39:06.424Z,16.30
2023-09-08T05:41:35.830Z,17.20
2023-09-08T05:44:04.870Z,18.20
2023-09-08T05:46:33.716Z,18.50
2023-09-08T05:49:01.853Z,18.20
2023-09-08T05:51:29.917Z,18.00
2023-09-08T05:53:57.960Z,17.70
2023-09-08T05:56:28.506Z,17.60
2023-09-08T05:58:57.844Z,17.50
2023-09-08T06:01:26.043Z,17.50
2023-09-08T06:03:57.719Z,17.40
2023-09-08T06:06:26.336Z,17.60
2023-09-08T06:08:54.535Z,17.60
2023-09-08T06:11:23.728Z,17.70
2023-09-08T06:13:51.734Z,17.70
2023-09-08T06:16:21.212Z,17.80
2023-09-08T06:18:49.264Z,18.00
2023-09-08T06:21:17.216Z,19.10
2023-09-08T06:23:45.288Z,20.40
2023-09-08T06:26:14.506Z,21.20
2023-09-08T06:28:44.426Z,22.50
2023-09-08T06:31:12.626Z,23.70
2023-09-08T06:33:42.192Z,25.10
2023-09-08T06:36:11.086Z,25.40
2023-09-08T06:38:39.087Z,26.50
2023-09-08T06:41:11.970Z,26.60
2023-09-08T06:43:40.041Z,26.10
2023-09-08T06:46:08.185Z,26.00
2023-09-08T06:48:36.699Z,26.10
2023-09-08T06:51:06.420Z,26.40
2023-09-08T06:53:34.680Z,26.60
2023-09-08T06:56:02.718Z,26.90
2023-09-08T06:58:30.900Z,27.20
2023-09-08T07:00:59.071Z,27.80
2023-09-08T07:03:28.465Z,28.70
2023-09-08T07:05:57.966Z,29.30
2023-09-08T07:08:27.372Z,29.30
2023-09-08T07:10:55.754Z,28.90
2023-09-08T07:13:23.934Z,29.30
2023-09-08T07:15:52.012Z,28.70
2023-09-08T07:18:20.225Z,29.20
2023-09-08T07:20:50.093Z,28.60
2023-09-08T07:23:19.260Z,29.10
2023-09-08T07:25:52.213Z,28.80
2023-09-08T07:28:22.785Z,29.70
2023-09-08T07:30:52.063Z,30.70
2023-09-08T07:33:20.622Z,30.90
2023-09-08T07:35:48.770Z,31.40
2023-09-08T07:38:16.844Z,29.70
2023-09-08T07:40:44.885Z,27.20
2023-09-08T07:43:14.355Z,25.30
2023-09-08T07:45:42.586Z,24.10
2023-09-08T07:48:10.751Z,22.80
2023-09-08T07:50:39.387Z,22.30
2023-09-08T07:53:07.523Z,21.70
2023-09-08T07:55:35.681Z,21.70
2023-09-08T07:58:04.805Z,21.60
2023-09-08T08:00:34.347Z,21.50
2023-09-08T08:03:02.403Z,21.40
2023-09-08T08:05:30.564Z,21.50
2023-09-08T08:08:00.328Z,21.50
2023-09-08T08:10:28.760Z,21.50
2023-09-08T08:12:56.765Z,21.30
2023-09-08T08:15:40.593Z,21.40
2023-09-08T08:18:10.991Z,21.40
2023-09-08T08:20:41.018Z,21.30
2023-09-08T08:23:09.737Z,21.50
2023-09-08T08:25:37.784Z,21.80
2023-09-08T08:28:06.383Z,21.90
2023-09-08T08:30:34.756Z,22.20
2023-09-08T08:33:05.447Z,22.20
2023-09-08T08:35:33.608Z,22.10
2023-09-08T08:38:02.096Z,22.20
2023-09-08T08:40:30.428Z,22.30
2023-09-08T08:43:02.305Z,22.30
2023-09-08T08:45:32.337Z,22.40
2023-09-08T08:48:01.126Z,22.40
2023-09-08T08:50:33.789Z,22.50
2023-09-08T08:53:03.294Z,22.60
2023-09-08T08:55:32.735Z,22.70
2023-09-08T08:58:05.437Z,23.00
2023-09-08T09:00:37.486Z,22.90
2023-09-08T09:03:14.974Z,23.00
2023-09-08T09:05:48.671Z,22.90
2023-09-08T09:08:19.582Z,22.90
2023-09-08T09:10:47.759Z,23.00
2023-09-08T09:13:16.013Z,23.10
2023-09-08T09:15:46.338Z,23.30
2023-09-08T09:18:15.010Z,23.40
2023-09-08T09:20:44.004Z,23.50
2023-09-08T09:23:14.807Z,23.60
2023-09-08T09:25:44.570Z,23.70
2023-09-08T09:28:12.859Z,23.90
2023-09-08T09:30:52.340Z,24.00
2023-09-08T09:33:21.892Z,24.10
2023-09-08T09:35:52.738Z,24.20
2023-09-08T09:38:23.677Z,24.10
2023-09-08T09:40:51.931Z,24.10
2023-09-08T09:43:23.934Z,24.00
2023-09-08T09:45:52.422Z,24.10
2023-09-08T09:48:24.390Z,24.20
2023-09-08T09:50:52.543Z,24.20
2023-09-08T09:53:23.052Z,24.40
2023-09-08T09:55:51.286Z,24.40
2023-09-08T09:58:23.349Z,24.40
2023-09-08T10:00:53.240Z,24.40
2023-09-08T10:03:22.094Z,24.50
2023-09-08T10:05:50.939Z,24.30
2023-09-08T10:08:19.597Z,24.40
2023-09-08T10:10:51.461Z,24.60
2023-09-08T10:13:26.332Z,24.80
2023-09-08T10:15:59.216Z,24.80
2023-09-08T10:18:28.906Z,24.90
2023-09-08T10:21:02.295Z,25.00
2023-09-08T10:23:43.941Z,25.10
2023-09-08T10:26:16.387Z,25.30
2023-09-08T10:28:45.997Z,25.40
2023-09-08T10:31:15.882Z,25.30
2023-09-08T10:33:45.517Z,25.20
2023-09-08T10:36:14.210Z,25.30
2023-09-08T10:38:45.925Z,25.50
2023-09-08T10:41:33.352Z,25.50
2023-09-08T10:44:05.943Z,25.40
2023-09-08T10:46:35.402Z,25.50
2023-09-08T10:49:05.407Z,25.60
2023-09-08T10:51:36.679Z,25.50
2023-09-08T10:54:05.247Z,25.60
2023-09-08T10:56:55.888Z,25.60
2023-09-08T10:59:27.137Z,25.60
2023-09-08T11:01:56.866Z,25.60
2023-09-08T11:04:27.464Z,25.60
2023-09-08T11:06:58.656Z,25.70
2023-09-08T11:09:26.745Z,25.70
2023-09-08T11:11:56.102Z,25.60
2023-09-08T11:14:24.269Z,25.80
2023-09-08T11:16:52.607Z,25.90
2023-09-08T11:19:20.574Z,26.10
2023-09-08T11:21:51.140Z,26.30
2023-09-08T11:24:19.888Z,26.30
2023-09-08T11:26:51.270Z,26.20
2023-09-08T11:29:20.862Z,26.30
2023-09-08T11:31:54.346Z,26.20
2023-09-08T11:34:23.014Z,26.30
2023-09-08T11:36:51.213Z,26.30
2023-09-08T11:39:19.279Z,26.40
2023-09-08T11:41:47.347Z,26.40
2023-09-08T11:44:18.298Z,26.50
2023-09-08T11:46:49.486Z,26.50
2023-09-08T11:49:21.261Z,26.50
2023-09-08T11:51:49.312Z,26.60
2023-09-08T11:54:18.229Z,26.60
2023-09-08T11:56:47.051Z,26.50
2023-09-08T11:59:15.930Z,26.50
2023-09-08T12:01:44.158Z,26.50
2023-09-08T12:04:21.738Z,26.50
2023-09-08T12:06:50.594Z,26.60
2023-09-08T12:09:23.121Z,26.60
2023-09-08T12:11:51.653Z,26.70
2023-09-08T12:14:19.651Z,26.80
2023-09-08T12:16:47.830Z,26.80
2023-09-08T12:19:37.868Z,26.80
2023-09-08T12:22:08.611Z,26.80
2023-09-08T12:24:50.323Z,26.70
2023-09-08T12:27:19.314Z,26.80
2023-09-08T12:30:01.496Z,26.90
2023-09-08T12:32:32.877Z,26.90
2023-09-08T12:35:06.312Z,26.90
2023-09-08T12:37:36.224Z,26.90
2023-09-08T12:40:05.101Z,26.80
2023-09-08T12:42:34.355Z,26.80
2023-09-08T12:45:07.516Z,26.90
2023-09-08T12:47:36.489Z,27.00
2023-09-08T12:50:06.968Z,27.10
2023-09-08T12:52:35.020Z,27.00
2023-09-08T12:55:03.101Z,27.20
2023-09-08T12:57:31.518Z,27.10
2023-09-08T12:59:59.760Z,27.10
2023-09-08T13:02:27.865Z,26.90
2023-09-08T13:04:57.573Z,27.00
2023-09-08T13:07:28.334Z,27.00
2023-09-08T13:09:56.542Z,27.10
2023-09-08T13:12:24.589Z,27.10
2023-09-08T13:14:52.617Z,27.10
2023-09-08T13:17:21.519Z,27.10
2023-09-08T13:19:49.819Z,27.20
2023-09-08T13:22:17.865Z,27.30
2023-09-08T13:24:47.261Z,27.30
2023-09-08T13:27:16.629Z,27.50
2023-09-08T13:29:44.541Z,27.60
2023-09-08T13:32:12.759Z,27.60
2023-09-08T13:34:40.841Z,27.60
2023-09-08T13:37:09.119Z,27.70
2023-09-08T13:39:37.205Z,27.70
2023-09-08T13:42:07.350Z,27.70
2023-09-08T13:44:35.595Z,27.50
2023-09-08T13:47:04.263Z,27.40
2023-09-08T13:49:33.254Z,27.40
2023-09-08T13:52:04.310Z,27.30
2023-09-08T13:54:34.936Z,27.10
2023-09-08T13:57:08.731Z,27.10
2023-09-08T13:59:42.430Z,27.30
2023-09-08T14:02:38.256Z,27.40
2023-09-08T14:05:02.916Z,27.40
2023-09-08T14:12:39.121Z,27.30
2023-09-08T14:15:09.912Z,27.30
2023-09-08T14:17:38.007Z,27.40
2023-09-08T14:20:07.108Z,27.40
2023-09-08T14:22:35.117Z,27.50
2023-09-08T14:25:03.261Z,27.50
2023-09-08T14:27:31.218Z,27.50
2023-09-08T14:29:59.188Z,27.40
2023-09-08T14:32:28.990Z,27.40
2023-09-08T14:34:57.234Z,27.40
2023-09-08T14:37:25.487Z,27.50
2023-09-08T14:39:53.446Z,27.40
2023-09-08T14:42:21.567Z,27.40
2023-09-08T14:44:52.525Z,27.50
2023-09-08T14:47:20.544Z,27.40
2023-09-08T14:49:50.266Z,27.40
2023-09-08T14:52:21.685Z,27.50
2023-09-08T14:54:49.759Z,27.50
2023-09-08T14:57:17.811Z,27.50
2023-09-08T14:59:45.875Z,27.50
2023-09-08T15:02:13.914Z,27.50
2023-09-08T15:04:41.884Z,27.50
2023-09-08T15:07:11.242Z,27.50
2023-09-08T15:09:39.188Z,27.50
2023-09-08T15:12:08.423Z,27.50
2023-09-08T15:14:36.355Z,27.60
2023-09-08T15:17:05.161Z,27.50
2023-09-08T15:19:40.654Z,27.40
2023-09-08T15:22:08.793Z,27.40
2023-09-08T15:24:38.135Z,27.30
2023-09-08T15:27:06.525Z,27.40
2023-09-08T15:29:34.512Z,27.50
2023-09-08T15:32:02.543Z,27.50
2023-09-08T15:34:30.537Z,27.40
2023-09-08T15:36:58.538Z,27.40
2023-09-08T15:39:26.602Z,27.50
2023-09-08T15:41:55.925Z,27.40
2023-09-08T15:44:24.773Z,27.30
2023-09-08T15:46:52.714Z,27.20
2023-09-08T15:49:22.776Z,27.20
2023-09-08T15:51:54.416Z,27.10
2023-09-08T15:54:29.324Z,27.10
2023-09-08T15:56:58.718Z,27.10
2023-09-08T15:59:26.718Z,27.20
2023-09-08T16:01:54.821Z,27.10
2023-09-08T16:04:23.023Z,27.10
2023-09-08T16:06:51.242Z,27.10
2023-09-08T16:09:19.716Z,27.10
2023-09-08T16:11:48.278Z,27.00
2023-09-08T16:14:17.593Z,27.00
2023-09-08T16:16:45.640Z,26.90
2023-09-08T16:19:13.680Z,26.90
2023-09-08T16:21:43.770Z,26.90
2023-09-08T16:24:11.743Z,26.90
2023-09-08T16:26:39.774Z,26.80
2023-09-08T16:29:07.970Z,26.80
2023-09-08T16:31:37.334Z,26.70
2023-09-08T16:34:05.991Z,26.60
2023-09-08T16:36:33.956Z,26.60
2023-09-08T16:39:02.088Z,26.60
2023-09-08T16:41:30.065Z,26.50
2023-09-08T16:43:58.501Z,26.40
2023-09-08T16:46:26.580Z,26.40
2023-09-08T16:48:55.947Z,26.30
2023-09-08T16:51:23.940Z,26.30
2023-09-08T16:53:51.911Z,26.20
2023-09-08T16:56:19.870Z,26.10
2023-09-08T16:58:47.833Z,26.00
2023-09-08T17:01:15.978Z,25.90
2023-09-08T17:03:44.029Z,25.80
2023-09-08T17:06:13.865Z,25.80
2023-09-08T17:08:41.786Z,25.70
2023-09-08T17:11:11.501Z,25.50
2023-09-08T17:13:39.675Z,25.50
2023-09-08T17:16:07.826Z,25.30
2023-09-08T17:18:35.943Z,25.20
2023-09-08T17:21:04.422Z,24.90
2023-09-08T17:23:33.846Z,24.60
2023-09-08T17:26:02.530Z,24.30
2023-09-08T17:28:30.991Z,24.10
2023-09-08T17:30:59.859Z,23.90
2023-09-08T17:33:27.895Z,23.70
2023-09-08T17:35:55.938Z,23.60
2023-09-08T17:38:24.012Z,23.40
2023-09-08T17:40:56.852Z,23.40
2023-09-08T17:43:26.196Z,23.30
2023-09-08T17:45:54.281Z,23.10
2023-09-08T17:48:22.388Z,22.90
2023-09-08T17:50:50.422Z,22.80
2023-09-08T17:53:18.457Z,22.70
2023-09-08T17:55:46.432Z,22.60
2023-09-08T17:58:15.966Z,22.50
2023-09-08T18:00:44.012Z,22.50
2023-09-08T18:03:15.392Z,22.30
2023-09-08T18:05:44.714Z,22.20
2023-09-08T18:08:13.768Z,22.10
2023-09-08T18:10:42.080Z,22.00
2023-09-08T18:13:10.117Z,21.90
2023-09-08T18:15:39.580Z,21.80
2023-09-08T18:18:08.084Z,21.70
2023-09-08T18:20:36.345Z,21.60
2023-09-08T18:23:04.310Z,21.50
2023-09-08T18:25:32.320Z,21.50
2023-09-08T18:28:00.311Z,21.50
2023-09-08T18:30:28.285Z,21.50
2023-09-08T18:32:57.665Z,21.40
2023-09-08T18:35:26.211Z,21.30
2023-09-08T18:37:54.652Z,21.30
2023-09-08T18:40:22.613Z,21.30
2023-09-08T18:42:50.624Z,21.20
2023-09-08T18:45:19.030Z,21.20
2023-09-08T18:47:47.166Z,21.20
2023-09-08T18:50:16.731Z,21.10
2023-09-08T18:52:44.832Z,21.10
2023-09-08T18:55:12.816Z,21.10
2023-09-08T18:57:40.831Z,21.10
2023-09-08T19:00:10.332Z,21.00
2023-09-08T19:02:38.505Z,21.00
2023-09-08T19:05:08.014Z,20.90
2023-09-08T19:07:37.513Z,20.90
2023-09-08T19:10:06.345Z,20.80
2023-09-08T19:12:34.678Z,20.70
2023-09-08T19:15:02.695Z,20.60
2023-09-08T19:17:30.921Z,20.60
2023-09-08T19:19:59.012Z,20.60
2023-09-08T19:22:27.173Z,20.60
2023-09-08T19:24:56.601Z,20.60
2023-09-08T19:27:24.562Z,20.60
2023-09-08T19:29:53.229Z,20.60
2023-09-08T19:32:21.213Z,20.60
2023-09-08T19:34:49.282Z,20.50
2023-09-08T19:37:17.330Z,20.50
2023-09-08T19:39:46.205Z,20.50
2023-09-08T19:42:17.182Z,20.60
2023-09-08T19:44:45.451Z,20.80
2023-09-08T19:47:14.466Z,21.00
2023-09-08T19:49:43.738Z,21.30
2023-09-08T19:52:13.364Z,21.40
2023-09-08T19:54:41.441Z,21.60
2023-09-08T19:57:10.020Z,21.70
2023-09-08T19:59:40.372Z,21.80
2023-09-08T20:02:08.924Z,21.90
2023-09-08T20:04:37.129Z,22.00
2023-09-08T20:07:05.627Z,21.90
2023-09-08T20:09:34.004Z,21.90
2023-09-08T20:12:02.789Z,22.00
2023-09-08T20:14:30.795Z,22.10
2023-09-08T20:17:01.058Z,22.10
2023-09-08T20:19:29.008Z,22.10
2023-09-08T20:21:57.003Z,22.10
2023-09-08T20:24:24.944Z,22.10
2023-09-08T20:26:53.118Z,22.20
2023-09-08T20:29:21.255Z,22.30
2023-09-08T20:31:49.346Z,22.30
2023-09-08T20:34:18.699Z,22.20
2023-09-08T20:36:46.677Z,22.20
2023-09-08T20:39:14.770Z,22.20
2023-09-08T20:41:42.778Z,22.20
2023-09-08T20:44:10.806Z,22.10
2023-09-08T20:46:39.894Z,22.00
2023-09-08T20:49:07.992Z,22.00
2023-09-08T20:51:37.536Z,21.80
2023-09-08T20:54:05.637Z,21.90
2023-09-08T20:56:33.680Z,21.80
2023-09-08T20:59:01.761Z,22.00
2023-09-08T21:01:29.754Z,22.00
2023-09-08T21:03:57.931Z,22.00
2023-09-08T21:06:27.143Z,22.00
2023-09-08T21:08:56.557Z,21.90
2023-09-08T21:11:25.097Z,22.00
2023-09-08T21:13:53.125Z,21.80
2023-09-08T21:16:21.180Z,21.70
2023-09-08T21:18:49.170Z,21.50
2023-09-08T21:21:17.158Z,21.20
2023-09-08T21:23:45.069Z,20.90
2023-09-08T21:26:17.557Z,20.70
2023-09-08T21:28:45.630Z,20.60
2023-09-08T21:31:13.679Z,20.50
2023-09-08T21:33:41.967Z,20.50
2023-09-08T21:36:13.423Z,20.50
2023-09-08T21:38:41.574Z,20.70
2023-09-08T21:41:10.966Z,20.90
2023-09-08T21:43:41.144Z,20.90
2023-09-08T21:46:10.479Z,21.00
2023-09-08T21:48:39.591Z,21.00
2023-09-08T21:51:08.078Z,21.20
2023-09-08T21:53:36.210Z,21.30
2023-09-08T21:56:04.451Z,21.20
2023-09-08T21:58:32.408Z,21.20
2023-09-08T22:01:01.824Z,21.10
2023-09-08T22:03:31.809Z,21.10
2023-09-08T22:05:59.998Z,21.20
2023-09-08T22:08:28.097Z,21.20
2023-09-08T22:10:56.088Z,21.20
2023-09-08T22:13:24.109Z,21.30
2023-09-08T22:15:52.060Z,21.40
2023-09-08T22:18:21.456Z,21.40
2023-09-08T22:20:55.377Z,21.50
2023-09-08T22:23:23.416Z,21.50
2023-09-08T22:25:51.406Z,21.40
2023-09-08T22:28:19.414Z,21.40
2023-09-08T22:30:47.407Z,21.40
2023-09-08T22:33:15.494Z,21.50
2023-09-08T22:35:44.899Z,21.50
2023-09-08T22:38:12.902Z,21.50
2023-09-08T22:40:40.846Z,21.60
2023-09-08T22:43:08.769Z,21.70
2023-09-08T22:45:36.864Z,21.70
2023-09-08T22:48:05.780Z,21.70
2023-09-08T22:50:34.439Z,21.60
2023-09-08T22:53:04.469Z,21.60
2023-09-08T22:55:32.582Z,21.60
2023-09-08T22:58:28.026Z,21.60
2023-09-08T23:00:56.005Z,21.60
2023-09-08T23:03:24.250Z,21.70
2023-09-08T23:05:52.340Z,21.60
2023-09-08T23:08:21.608Z,21.60
2023-09-08T23:10:53.404Z,21.50
2023-09-08T23:13:21.382Z,21.40
2023-09-08T23:15:51.392Z,21.40
2023-09-08T23:18:19.547Z,21.40
2023-09-08T23:20:47.658Z,21.20
2023-09-08T23:23:15.718Z,21.00
2023-09-08T23:25:45.069Z,20.80
2023-09-08T23:28:13.534Z,20.60
2023-09-08T23:30:41.473Z,20.50
2023-09-08T23:33:09.499Z,20.40
2023-09-08T23:35:37.542Z,20.20
2023-09-08T23:38:05.711Z,20.10
2023-09-08T23:40:37.411Z,19.90
2023-09-08T23:43:06.874Z,19.90
2023-09-08T23:45:34.878Z,20.00
2023-09-08T23:48:05.780Z,20.00
2023-09-08T23:50:54.053Z,20.10
2023-09-08T23:53:22.382Z,20.10
2023-09-08T23:55:51.141Z,20.00
2023-09-08T23:58:21.203Z,19.80
